createdAt,value
2023-04-26T00:01:51.483Z,5.68
2023-04-26T00:06:54.898Z,5.64
2023-04-26T00:11:58.006Z,5.61
2023-04-26T00:17:02.953Z,5.59
2023-04-26T00:22:06.644Z,5.56
2023-04-26T00:27:10.864Z,5.54
2023-04-26T00:32:13.970Z,5.51
2023-04-26T00:37:17.138Z,5.47
2023-04-26T00:42:20.143Z,5.39
2023-04-26T00:47:29.742Z,5.29
2023-04-26T00:52:32.818Z,5.16
2023-04-26T00:57:35.928Z,5.05
2023-04-26T01:02:39.179Z,4.93
2023-04-26T01:07:42.447Z,4.85
2023-04-26T01:12:46.062Z,4.80
2023-04-26T01:17:49.935Z,4.81
2023-04-26T01:22:52.898Z,4.87
2023-04-26T01:27:55.826Z,4.92
2023-04-26T01:32:58.832Z,4.94
2023-04-26T01:38:02.022Z,4.88
2023-04-26T01:43:05.023Z,4.73
2023-04-26T01:48:09.115Z,4.61
2023-04-26T01:53:12.466Z,4.55
2023-04-26T01:58:15.577Z,4.54
2023-04-26T02:03:18.592Z,4.59
2023-04-26T02:08:21.591Z,4.64
2023-04-26T02:13:24.901Z,4.72
2023-04-26T02:18:27.809Z,4.78
2023-04-26T02:23:30.713Z,4.84
2023-04-26T02:28:33.620Z,4.88
2023-04-26T02:33:36.830Z,4.91
2023-04-26T02:38:39.846Z,4.91
2023-04-26T02:43:42.745Z,4.87
2023-04-26T02:48:45.757Z,4.74
2023-04-26T02:53:48.758Z,4.57
2023-04-26T02:58:52.711Z,4.38
2023-04-26T03:03:56.364Z,4.17
2023-04-26T03:08:59.510Z,3.96
2023-04-26T03:14:02.523Z,3.79
2023-04-26T03:19:05.732Z,3.65
2023-04-26T03:24:08.838Z,3.54
2023-04-26T03:29:12.977Z,3.44
2023-04-26T03:34:15.992Z,3.37
2023-04-26T03:39:19.299Z,3.30
2023-04-26T03:44:22.304Z,3.27
2023-04-26T03:49:25.411Z,3.25
2023-04-26T03:54:28.318Z,3.32
2023-04-26T03:59:34.703Z,3.86
2023-04-26T04:04:37.943Z,4.55
2023-04-26T04:09:41.017Z,5.43
2023-04-26T04:14:43.927Z,6.84
2023-04-26T04:19:46.825Z,8.03
2023-04-26T04:24:49.837Z,9.07
2023-04-26T04:29:56.257Z,9.98
2023-04-26T04:34:59.840Z,10.95
2023-04-26T04:40:03.057Z,12.11
2023-04-26T04:45:07.030Z,13.10
2023-04-26T04:50:10.297Z,14.11
2023-04-26T04:55:13.448Z,14.93
2023-04-26T05:00:17.382Z,15.64
2023-04-26T05:05:20.902Z,16.13
2023-04-26T05:10:23.859Z,16.49
2023-04-26T05:15:27.232Z,16.89
2023-04-26T05:20:31.222Z,17.25
2023-04-26T05:25:37.589Z,17.42
2023-04-26T05:30:40.994Z,17.64
2023-04-26T05:35:44.013Z,17.93
2023-04-26T05:40:48.455Z,18.00
2023-04-26T05:45:56.638Z,18.13
2023-04-26T05:50:59.625Z,18.37
2023-04-26T05:56:02.694Z,18.22
2023-04-26T06:01:06.416Z,17.67
2023-04-26T06:06:09.829Z,17.52
2023-04-26T06:11:12.846Z,16.98
2023-04-26T06:16:16.290Z,16.94
2023-04-26T06:21:20.079Z,17.14
2023-04-26T06:26:23.097Z,17.31
2023-04-26T06:31:26.430Z,17.75
2023-04-26T06:36:29.716Z,18.15
2023-04-26T06:41:32.831Z,17.92
2023-04-26T06:46:35.959Z,17.08
2023-04-26T06:51:39.247Z,16.42
2023-04-26T06:56:42.153Z,16.03
2023-04-26T07:01:45.307Z,15.75
2023-04-26T07:06:49.117Z,15.75
2023-04-26T07:11:52.313Z,15.77
2023-04-26T07:16:55.308Z,15.41
2023-04-26T07:21:58.525Z,14.92
2023-04-26T07:27:02.240Z,14.74
2023-04-26T07:32:05.759Z,14.26
2023-04-26T07:37:09.381Z,13.80
2023-04-26T07:42:12.692Z,13.73
2023-04-26T07:47:16.119Z,13.22
2023-04-26T07:52:19.321Z,12.55
2023-04-26T07:57:22.427Z,12.22
2023-04-26T08:02:33.231Z,12.23
2023-04-26T08:07:46.872Z,11.84
2023-04-26T08:12:50.390Z,11.43
2023-04-26T08:17:53.625Z,11.18
2023-04-26T08:22:57.447Z,11.26
2023-04-26T08:28:01.001Z,11.56
2023-04-26T08:33:04.086Z,11.39
2023-04-26T08:38:07.475Z,10.98
2023-04-26T08:43:11.294Z,10.37
2023-04-26T08:48:16.404Z,9.82
2023-04-26T08:53:20.076Z,9.39
2023-04-26T08:58:23.898Z,9.16
2023-04-26T09:03:27.597Z,9.16
2023-04-26T09:08:30.940Z,9.24
2023-04-26T09:13:34.157Z,9.40
2023-04-26T09:18:49.993Z,9.69
2023-04-26T09:24:01.900Z,9.93
2023-04-26T09:29:19.163Z,10.09
2023-04-26T09:34:22.537Z,10.45
2023-04-26T09:39:32.905Z,10.83
2023-04-26T09:44:36.211Z,11.13
2023-04-26T09:49:50.978Z,11.22
2023-04-26T09:54:55.133Z,11.22
2023-04-26T09:59:58.357Z,11.11
2023-04-26T10:05:03.138Z,10.91
2023-04-26T10:10:07.977Z,10.65
2023-04-26T10:15:12.196Z,10.65
2023-04-26T10:20:18.466Z,10.67
2023-04-26T10:25:21.876Z,10.47
2023-04-26T10:30:25.102Z,10.13
2023-04-26T10:35:30.506Z,9.91
2023-04-26T10:40:40.442Z,9.86
2023-04-26T10:45:45.904Z,9.91
2023-04-26T10:51:13.470Z,10.03
2023-04-26T10:56:25.890Z,10.15
2023-04-26T11:01:30.845Z,10.39
2023-04-26T11:06:58.065Z,10.41
2023-04-26T11:12:01.141Z,10.11
2023-04-26T11:17:08.395Z,9.77
2023-04-26T11:22:11.549Z,9.68
2023-04-26T11:27:14.759Z,9.74
2023-04-26T11:32:20.326Z,9.60
2023-04-26T11:37:23.431Z,9.46
2023-04-26T11:42:26.952Z,9.30
2023-04-26T11:47:31.597Z,9.08
2023-04-26T11:52:34.705Z,8.93
2023-04-26T11:57:37.914Z,8.92
2023-04-26T12:02:48.282Z,9.26
2023-04-26T12:07:57.038Z,9.71
2023-04-26T12:13:00.476Z,9.93
2023-04-26T12:18:11.806Z,9.97
2023-04-26T12:23:17.456Z,9.98
2023-04-26T12:28:20.977Z,9.90
2023-04-26T12:33:25.692Z,9.74
2023-04-26T12:38:28.899Z,9.34
2023-04-26T12:43:32.528Z,9.00
2023-04-26T12:48:36.403Z,8.83
2023-04-26T12:53:39.462Z,8.81
2023-04-26T12:58:42.773Z,8.92
2023-04-26T13:03:46.685Z,9.17
2023-04-26T13:08:50.017Z,9.55
2023-04-26T13:13:53.090Z,9.81
2023-04-26T13:18:56.571Z,9.85
2023-04-26T13:23:59.751Z,9.88
2023-04-26T13:29:04.520Z,9.93
2023-04-26T13:34:07.824Z,9.95
2023-04-26T13:39:11.122Z,10.05
2023-04-26T13:44:15.865Z,10.05
2023-04-26T13:49:18.979Z,9.93
2023-04-26T13:54:22.803Z,9.72
2023-04-26T13:59:27.282Z,9.50
2023-04-26T14:04:31.156Z,9.52
2023-04-26T14:09:34.690Z,9.60
2023-04-26T14:14:38.006Z,9.53
2023-04-26T14:19:42.608Z,9.15
2023-04-26T14:24:46.374Z,8.83
2023-04-26T14:29:49.807Z,8.61
2023-04-26T14:34:53.012Z,8.48
2023-04-26T14:39:56.416Z,8.48
2023-04-26T14:45:00.353Z,8.57
2023-04-26T14:50:04.728Z,8.73
2023-04-26T14:55:08.864Z,8.91
2023-04-26T15:00:15.636Z,9.07
2023-04-26T15:05:18.936Z,9.13
2023-04-26T15:10:22.134Z,9.10
2023-04-26T15:15:25.247Z,8.95
2023-04-26T15:20:28.597Z,8.77
2023-04-26T15:25:35.191Z,8.78
2023-04-26T15:30:38.252Z,8.86
2023-04-26T15:35:41.770Z,8.90
2023-04-26T15:40:45.291Z,8.91
2023-04-26T15:45:50.066Z,9.20
2023-04-26T15:50:57.172Z,9.49
2023-04-26T15:56:00.480Z,9.47
2023-04-26T16:01:03.807Z,9.27
2023-04-26T16:06:08.828Z,8.92
2023-04-26T16:11:11.937Z,8.66
2023-04-26T16:16:15.179Z,8.59
2023-04-26T16:21:18.252Z,8.58
2023-04-26T16:26:22.389Z,8.53
2023-04-26T16:31:26.709Z,8.53
2023-04-26T16:36:30.148Z,8.51
2023-04-26T16:41:33.574Z,8.38
2023-04-26T16:46:37.198Z,8.28
2023-04-26T16:51:41.115Z,8.16
2023-04-26T16:56:44.221Z,7.99
2023-04-26T17:01:50.845Z,7.83
2023-04-26T17:06:55.041Z,7.67
2023-04-26T17:11:58.365Z,7.49
2023-04-26T17:17:01.460Z,7.33
2023-04-26T17:22:06.418Z,7.17
2023-04-26T17:27:09.538Z,6.98
2023-04-26T17:32:12.777Z,6.82
2023-04-26T17:37:15.847Z,6.65
2023-04-26T17:42:19.062Z,6.52
2023-04-26T17:47:22.481Z,6.39
2023-04-26T17:52:25.690Z,6.25
2023-04-26T17:57:28.791Z,6.06
2023-04-26T18:02:32.134Z,5.87
2023-04-26T18:07:35.729Z,5.68
2023-04-26T18:12:38.931Z,5.50
2023-04-26T18:17:42.118Z,5.30
2023-04-26T18:22:45.253Z,5.10
2023-04-26T18:27:49.103Z,4.95
2023-04-26T18:32:53.374Z,4.83
2023-04-26T18:37:57.352Z,4.73
2023-04-26T18:43:00.675Z,4.61
2023-04-26T18:48:04.204Z,4.50
2023-04-26T18:53:07.391Z,4.46
2023-04-26T18:58:10.952Z,4.43
2023-04-26T19:03:14.174Z,4.38
2023-04-26T19:08:17.825Z,4.28
2023-04-26T19:13:21.115Z,4.15
2023-04-26T19:18:24.385Z,4.01
2023-04-26T19:23:27.593Z,3.85
2023-04-26T19:28:31.275Z,3.65
2023-04-26T19:33:34.318Z,3.43
2023-04-26T19:38:37.524Z,3.21
2023-04-26T19:43:40.746Z,3.02
2023-04-26T19:48:43.951Z,2.85
2023-04-26T19:53:47.165Z,2.68
2023-04-26T19:58:50.377Z,2.56
2023-04-26T20:03:53.772Z,2.41
2023-04-26T20:08:57.015Z,2.27
2023-04-26T20:14:00.416Z,2.14
2023-04-26T20:19:03.726Z,2.02
2023-04-26T20:24:07.309Z,1.96
2023-04-26T20:29:10.355Z,1.88
2023-04-26T20:34:13.362Z,1.78
2023-04-26T20:39:16.770Z,1.70
2023-04-26T20:44:19.877Z,1.64
2023-04-26T20:49:23.269Z,1.59
2023-04-26T20:54:26.409Z,1.52
2023-04-26T20:59:29.518Z,1.44
2023-04-26T21:04:32.886Z,1.40
2023-04-26T21:09:36.150Z,1.35
2023-04-26T21:14:39.253Z,1.30
2023-04-26T21:19:42.853Z,1.22
2023-04-26T21:24:45.984Z,1.14
2023-04-26T21:29:48.989Z,1.07
2023-04-26T21:34:52.097Z,0.99
2023-04-26T21:39:55.108Z,0.88
2023-04-26T21:44:58.113Z,0.78
2023-04-26T21:50:01.336Z,0.67
2023-04-26T21:55:04.917Z,0.63
2023-04-26T22:00:11.814Z,0.57
2023-04-26T22:05:14.745Z,0.53
2023-04-26T22:10:18.242Z,0.49
2023-04-26T22:15:21.583Z,0.44
2023-04-26T22:20:24.728Z,0.40
2023-04-26T22:25:27.692Z,0.35
2023-04-26T22:30:30.635Z,0.29
2023-04-26T22:35:33.618Z,0.22
2023-04-26T22:40:36.817Z,0.16
2023-04-26T22:45:39.838Z,0.11
2023-04-26T22:50:43.147Z,0.07
2023-04-26T22:55:46.450Z,0.01
2023-04-26T23:00:49.473Z,-0.04
2023-04-26T23:05:52.571Z,-0.07
2023-04-26T23:10:55.474Z,-0.10
2023-04-26T23:15:58.480Z,-0.13
2023-04-26T23:21:01.698Z,-0.12
2023-04-26T23:26:08.241Z,-0.11
2023-04-26T23:31:11.546Z,-0.07
2023-04-26T23:36:14.600Z,0.01
2023-04-26T23:41:17.502Z,0.08
2023-04-26T23:46:20.548Z,0.14
2023-04-26T23:51:23.621Z,0.20
2023-04-26T23:56:26.623Z,0.24
